Time;durP1;ratioP1;P1;durP2;ratioP2;P2;SDS_P1;SDS_P2;PMS_P1;PMS_P2;Temp;Humidity;BMP_temperature;BMP_pressure;BME280_temperature;BME280_humidity;BME280_pressure;Samples;Min_cycle;Max_cycle;Signal;HPM_P1;HPM_P2
2023/07/20 00:01:58;;;;;;;9.98;4.20;;;19.60;99.90;;;;;;5013297;28;20026;-72
2023/07/20 00:04:24;;;;;;;7.32;4.18;;;19.60;99.90;;;;;;5018796;28;20084;-72
2023/07/20 00:06:49;;;;;;;8.02;4.00;;;19.70;99.90;;;;;;5019203;28;20030;-72
2023/07/20 00:09:15;;;;;;;10.10;4.47;;;19.50;99.90;;;;;;5010167;28;20464;-72
2023/07/20 00:11:49;;;;;;;8.77;4.45;;;19.50;99.90;;;;;;5010229;28;20493;-72
2023/07/20 00:14:15;;;;;;;9.73;5.07;;;19.50;99.90;;;;;;5019110;28;20034;-72
2023/07/20 00:16:40;;;;;;;8.55;4.38;;;19.70;99.90;;;;;;5011877;28;20037;-72
2023/07/20 00:19:06;;;;;;;8.10;3.88;;;19.70;99.90;;;;;;5018398;28;20054;-72
2023/07/20 00:21:32;;;;;;;9.40;4.22;;;19.70;99.90;;;;;;5010834;28;20038;-72
2023/07/20 00:23:58;;;;;;;6.78;4.10;;;19.70;99.90;;;;;;5016751;28;20578;-72
2023/07/20 00:26:23;;;;;;;8.90;4.43;;;19.80;99.90;;;;;;5009865;28;20088;-72
2023/07/20 00:28:51;;;;;;;8.93;5.00;;;19.90;99.90;;;;;;5009135;28;20471;-72
2023/07/20 00:31:17;;;;;;;7.00;4.38;;;19.90;99.90;;;;;;5009877;28;20077;-72
2023/07/20 00:33:43;;;;;;;11.48;4.88;;;19.90;99.90;;;;;;5015975;28;20084;-72
2023/07/20 00:36:08;;;;;;;11.50;4.55;;;20.00;99.90;;;;;;5011143;28;20030;-72
2023/07/20 00:38:34;;;;;;;14.25;5.80;;;19.90;99.90;;;;;;5013917;28;20034;-72
2023/07/20 00:41:00;;;;;;;11.50;4.88;;;19.90;99.90;;;;;;5011199;28;20030;-72
2023/07/20 00:43:25;;;;;;;10.45;5.00;;;19.90;99.90;;;;;;5008408;28;20080;-72
2023/07/20 00:45:51;;;;;;;9.88;5.13;;;19.90;99.90;;;;;;5009846;28;20038;-72
2023/07/20 00:48:17;;;;;;;11.98;4.50;;;19.80;99.90;;;;;;5010566;28;20044;-72
2023/07/20 00:50:44;;;;;;;13.82;4.95;;;19.90;99.90;;;;;;5016598;28;20030;-73
2023/07/20 00:53:10;;;;;;;7.82;4.55;;;19.90;99.90;;;;;;5011126;28;20480;-72
2023/07/20 00:55:36;;;;;;;9.50;4.82;;;19.90;99.90;;;;;;5009653;28;20026;-72
2023/07/20 00:58:01;;;;;;;11.05;4.80;;;19.90;99.90;;;;;;5016018;28;20090;-73
2023/07/20 01:00:27;;;;;;;11.23;4.55;;;19.90;99.90;;;;;;5016513;28;20467;-72
2023/07/20 01:02:53;;;;;;;11.57;4.90;;;19.90;99.90;;;;;;5006019;28;20672;-72
2023/07/20 01:05:20;;;;;;;8.85;4.10;;;19.80;99.90;;;;;;5015831;28;20034;-72
2023/07/20 01:07:55;;;;;;;12.63;5.38;;;19.90;99.90;;;;;;5017490;28;20034;-73
2023/07/20 01:10:32;;;;;;;8.43;4.88;;;20.00;99.90;;;;;;5008208;28;20113;-72
2023/07/20 01:13:00;;;;;;;8.32;4.40;;;19.80;99.90;;;;;;5009141;28;20022;-72
2023/07/20 01:15:26;;;;;;;8.75;4.20;;;19.80;99.90;;;;;;5008572;28;20486;-72
2023/07/20 01:17:51;;;;;;;8.30;4.35;;;19.70;99.90;;;;;;5016576;28;20026;-72
2023/07/20 01:20:20;;;;;;;9.82;4.07;;;19.80;99.90;;;;;;5009530;28;20518;-73
2023/07/20 01:22:46;;;;;;;9.57;4.22;;;19.80;99.90;;;;;;5015226;28;20037;-72
2023/07/20 01:25:20;;;;;;;6.93;4.07;;;19.80;99.90;;;;;;5011697;28;20080;-72
2023/07/20 01:28:23;;;;;;;9.18;4.25;;;19.80;99.90;;;;;;5008569;28;20109;-72
2023/07/20 01:31:10;;;;;;;5.97;4.10;;;19.90;99.90;;;;;;5010958;28;20107;-72
2023/07/20 01:33:36;;;;;;;9.95;4.38;;;19.90;99.90;;;;;;5008097;28;20044;-72
2023/07/20 01:36:03;;;;;;;12.60;4.85;;;19.80;99.90;;;;;;5009164;28;20061;-72
2023/07/20 01:38:29;;;;;;;8.30;4.55;;;19.90;99.90;;;;;;5007565;28;20125;-72
2023/07/20 01:40:55;;;;;;;9.43;4.95;;;20.00;99.90;;;;;;5011915;28;20109;-72
2023/07/20 01:43:21;;;;;;;10.15;4.22;;;19.90;99.90;;;;;;5009815;28;20092;-72
2023/07/20 01:45:47;;;;;;;7.03;4.28;;;19.90;99.90;;;;;;5008560;28;20036;-72
2023/07/20 01:48:13;;;;;;;10.50;4.60;;;19.80;99.90;;;;;;5011593;28;20025;-73
2023/07/20 01:50:38;;;;;;;9.05;4.38;;;19.90;99.90;;;;;;5012131;28;20120;-72
2023/07/20 01:53:04;;;;;;;6.40;4.45;;;19.80;99.90;;;;;;5013137;28;20494;-72
2023/07/20 01:55:30;;;;;;;6.72;3.60;;;19.70;99.90;;;;;;5008762;28;20407;-72
2023/07/20 01:57:56;;;;;;;11.35;4.20;;;19.70;99.90;;;;;;5015196;28;20390;-72
2023/07/20 02:00:24;;;;;;;9.45;3.67;;;19.70;99.90;;;;;;5010219;28;20030;-73
2023/07/20 02:02:50;;;;;;;11.18;4.13;;;19.50;99.90;;;;;;5021375;28;20046;-72
2023/07/20 02:05:16;;;;;;;10.85;4.70;;;19.30;99.90;;;;;;5009094;28;20491;-72
2023/07/20 02:07:42;;;;;;;9.20;4.63;;;19.30;99.90;;;;;;5007863;28;20022;-72
2023/07/20 02:10:08;;;;;;;6.97;3.47;;;19.40;99.90;;;;;;5016866;28;20061;-72
2023/07/20 02:12:34;;;;;;;8.00;3.33;;;19.50;99.90;;;;;;5013857;28;20035;-72
2023/07/20 02:15:02;;;;;;;10.93;3.90;;;19.70;99.90;;;;;;5022233;28;20037;-73
2023/07/20 02:17:27;;;;;;;7.07;4.00;;;19.80;99.90;;;;;;5012319;28;20033;-72
2023/07/20 02:19:54;;;;;;;7.20;3.20;;;19.80;99.90;;;;;;5012074;28;20503;-72
2023/07/20 02:22:21;;;;;;;7.47;4.35;;;19.70;99.90;;;;;;5013970;28;20030;-72
2023/07/20 02:24:47;;;;;;;7.43;3.58;;;19.70;99.90;;;;;;5017784;28;20048;-72
2023/07/20 02:27:13;;;;;;;10.20;3.78;;;19.70;99.90;;;;;;5013684;28;20026;-72
2023/07/20 02:29:40;;;;;;;9.02;3.75;;;19.70;99.90;;;;;;5014519;28;20026;-72
2023/07/20 02:32:06;;;;;;;7.82;3.83;;;19.70;99.90;;;;;;5015396;28;20040;-72
2023/07/20 02:34:32;;;;;;;7.97;3.95;;;19.60;99.90;;;;;;5012888;28;20033;-72
2023/07/20 02:37:00;;;;;;;8.82;3.67;;;19.60;99.90;;;;;;5018023;28;20030;-72
2023/07/20 02:39:27;;;;;;;11.57;4.13;;;19.70;99.90;;;;;;5018764;28;20084;-72
2023/07/20 02:41:53;;;;;;;7.88;3.88;;;19.60;99.90;;;;;;5010960;28;20116;-72
2023/07/20 02:44:19;;;;;;;11.20;3.42;;;19.60;99.90;;;;;;5012798;28;20121;-72
2023/07/20 02:46:45;;;;;;;8.00;3.45;;;19.60;99.90;;;;;;5014466;28;20388;-72
2023/07/20 02:49:11;;;;;;;12.27;4.20;;;19.50;99.90;;;;;;5010790;28;20364;-72
2023/07/20 02:51:36;;;;;;;8.57;4.40;;;19.50;99.90;;;;;;5010142;28;20092;-72
2023/07/20 02:54:03;;;;;;;7.38;3.80;;;19.60;99.90;;;;;;5011840;28;20497;-72
2023/07/20 02:56:29;;;;;;;8.65;3.70;;;19.70;99.90;;;;;;5019165;28;20037;-72
2023/07/20 02:58:54;;;;;;;7.03;3.80;;;19.70;99.90;;;;;;5011123;28;20033;-72
2023/07/20 03:01:20;;;;;;;6.10;4.05;;;19.70;99.90;;;;;;5014598;28;20037;-72
2023/07/20 03:03:46;;;;;;;9.05;3.85;;;19.70;99.90;;;;;;5010506;28;20038;-72
2023/07/20 03:06:15;;;;;;;7.22;4.55;;;19.60;99.90;;;;;;5014704;28;20036;-72
2023/07/20 03:08:47;;;;;;;8.93;3.70;;;19.50;99.90;;;;;;5012702;28;20026;-72
2023/07/20 03:11:14;;;;;;;7.60;3.85;;;19.50;99.90;;;;;;5012272;28;20487;-72
2023/07/20 03:13:42;;;;;;;10.45;4.20;;;19.50;99.90;;;;;;5007993;28;20129;-72
2023/07/20 03:16:11;;;;;;;6.60;2.85;;;19.50;99.90;;;;;;5012923;28;20498;-72
2023/07/20 03:18:39;;;;;;;9.63;3.63;;;19.40;99.90;;;;;;5010233;28;20021;-72
2023/07/20 03:21:07;;;;;;;6.75;3.72;;;19.20;99.90;;;;;;5009226;28;20116;-72
2023/07/20 03:23:33;;;;;;;8.18;4.68;;;19.40;99.90;;;;;;5012506;28;20042;-73
2023/07/20 03:25:58;;;;;;;8.95;3.50;;;19.30;99.90;;;;;;5010818;28;20036;-72
2023/07/20 03:28:24;;;;;;;8.20;3.20;;;19.20;99.90;;;;;;5008583;28;20026;-72
2023/07/20 03:30:57;;;;;;;7.15;3.38;;;19.00;99.90;;;;;;5014140;28;20387;-73
2023/07/20 03:33:27;;;;;;;8.40;3.67;;;19.10;99.90;;;;;;5007294;28;20108;-73
2023/07/20 03:35:53;;;;;;;9.52;3.45;;;19.10;99.90;;;;;;5008063;28;20783;-72
2023/07/20 03:38:19;;;;;;;7.32;3.58;;;19.10;99.90;;;;;;5005346;28;20065;-72
2023/07/20 03:40:55;;;;;;;8.68;3.00;;;19.00;99.90;;;;;;5007820;28;20046;-72
2023/07/20 03:43:22;;;;;;;6.93;3.13;;;18.90;99.90;;;;;;5017100;28;20037;-72
2023/07/20 03:45:48;;;;;;;7.72;4.28;;;18.90;99.90;;;;;;5008428;28;20064;-72
2023/07/20 03:48:17;;;;;;;9.35;3.60;;;18.70;99.90;;;;;;5014384;28;20104;-72
2023/07/20 03:50:47;;;;;;;9.52;4.45;;;18.70;99.90;;;;;;5016517;28;20463;-72
2023/07/20 03:53:14;;;;;;;8.07;3.88;;;18.80;99.90;;;;;;5013079;28;20029;-72
2023/07/20 03:55:41;;;;;;;11.02;4.07;;;18.90;99.90;;;;;;5012283;28;20021;-72
2023/07/20 03:58:07;;;;;;;6.20;3.33;;;18.80;99.90;;;;;;5005087;28;20053;-73
2023/07/20 04:00:33;;;;;;;6.85;4.30;;;18.80;99.90;;;;;;5010028;28;20049;-72
2023/07/20 04:02:59;;;;;;;9.27;3.33;;;18.80;99.90;;;;;;5007656;28;20179;-72
2023/07/20 04:05:25;;;;;;;7.10;3.63;;;18.90;99.90;;;;;;5004243;28;20109;-73
2023/07/20 04:07:51;;;;;;;7.90;3.60;;;18.80;99.90;;;;;;4986133;28;20042;-72
2023/07/20 04:10:18;;;;;;;9.85;3.83;;;18.90;99.90;;;;;;5005967;28;20032;-73
2023/07/20 04:12:45;;;;;;;7.80;3.05;;;18.80;99.90;;;;;;5004036;28;20040;-72
2023/07/20 04:15:11;;;;;;;9.18;3.85;;;18.90;99.90;;;;;;5003219;28;20068;-73
2023/07/20 04:17:36;;;;;;;6.57;4.00;;;18.90;99.90;;;;;;5004761;28;20112;-72
2023/07/20 04:20:03;;;;;;;7.03;3.53;;;18.80;99.90;;;;;;5012173;28;20523;-73
2023/07/20 04:22:28;;;;;;;11.90;4.40;;;18.90;99.90;;;;;;5016511;28;20515;-72
2023/07/20 04:24:54;;;;;;;9.18;3.33;;;19.00;99.90;;;;;;5008118;28;20105;-72
2023/07/20 04:27:20;;;;;;;9.80;3.40;;;18.90;99.90;;;;;;5015658;28;20407;-73
2023/07/20 04:29:45;;;;;;;7.65;3.95;;;18.80;99.90;;;;;;5006883;28;20498;-73
2023/07/20 04:32:11;;;;;;;7.45;2.97;;;18.90;99.90;;;;;;5002112;28;20033;-73
2023/07/20 04:34:37;;;;;;;7.30;3.50;;;18.90;99.90;;;;;;5001339;28;20029;-72
2023/07/20 04:37:04;;;;;;;7.50;2.97;;;18.80;99.90;;;;;;5003746;28;20995;-73
2023/07/20 04:39:30;;;;;;;7.30;4.13;;;18.80;99.90;;;;;;5011329;28;20577;-73
2023/07/20 04:41:56;;;;;;;7.28;4.15;;;18.90;99.90;;;;;;5008520;28;20029;-72
2023/07/20 04:44:22;;;;;;;8.57;3.47;;;19.00;99.90;;;;;;5001699;28;20048;-72
2023/07/20 04:46:47;;;;;;;6.75;3.28;;;19.30;99.90;;;;;;5002717;28;20539;-72
2023/07/20 04:49:13;;;;;;;9.98;3.83;;;19.10;99.90;;;;;;5003898;28;20437;-72
2023/07/20 04:51:39;;;;;;;9.60;3.88;;;19.10;99.90;;;;;;5010460;28;20033;-72
2023/07/20 04:54:05;;;;;;;6.35;3.53;;;19.00;99.90;;;;;;5004287;28;20030;-73
2023/07/20 04:56:30;;;;;;;10.90;3.35;;;19.10;99.90;;;;;;5001528;28;20048;-72
2023/07/20 04:58:56;;;;;;;9.73;3.55;;;19.20;99.90;;;;;;5003614;28;20072;-72
2023/07/20 05:01:23;;;;;;;6.90;4.00;;;19.10;99.90;;;;;;5005960;28;20134;-72
2023/07/20 05:03:49;;;;;;;9.68;3.55;;;19.00;99.90;;;;;;5009068;28;20030;-72
2023/07/20 05:06:15;;;;;;;11.43;3.80;;;18.90;99.90;;;;;;5004990;28;20104;-72
2023/07/20 05:08:41;;;;;;;9.20;3.95;;;18.80;99.90;;;;;;5011581;28;20025;-72
2023/07/20 05:11:07;;;;;;;6.18;3.83;;;18.90;99.90;;;;;;5005761;28;20068;-72
2023/07/20 05:13:33;;;;;;;9.93;3.38;;;18.90;99.90;;;;;;5003751;28;20645;-73
2023/07/20 05:15:59;;;;;;;6.68;3.22;;;18.90;99.90;;;;;;5001799;28;20026;-72
2023/07/20 05:18:25;;;;;;;10.93;3.58;;;18.90;99.90;;;;;;5007999;28;20055;-72
2023/07/20 05:20:51;;;;;;;6.15;3.35;;;18.90;99.90;;;;;;5006264;28;20054;-73
2023/07/20 05:23:20;;;;;;;9.52;3.65;;;19.00;99.90;;;;;;5001684;28;20041;-73
2023/07/20 05:25:46;;;;;;;11.20;3.53;;;19.10;99.90;;;;;;5011077;28;20538;-72
2023/07/20 05:28:12;;;;;;;8.25;4.03;;;19.20;99.90;;;;;;5007954;28;20142;-74
2023/07/20 05:30:38;;;;;;;9.63;3.90;;;19.20;99.90;;;;;;5003501;28;20532;-73
2023/07/20 05:33:03;;;;;;;9.65;3.90;;;19.10;99.90;;;;;;5004823;28;20491;-72
2023/07/20 05:35:29;;;;;;;7.20;3.10;;;19.20;99.90;;;;;;4999890;28;25994;-73
2023/07/20 05:37:55;;;;;;;7.22;3.50;;;19.10;99.90;;;;;;5010348;28;20053;-73
2023/07/20 05:40:21;;;;;;;5.75;3.25;;;19.20;99.90;;;;;;5010285;28;20784;-72
2023/07/20 05:42:47;;;;;;;7.75;3.58;;;19.20;99.90;;;;;;5011191;28;20037;-72
2023/07/20 05:45:13;;;;;;;8.30;3.40;;;19.30;99.90;;;;;;5001722;28;20033;-73
2023/07/20 05:47:39;;;;;;;11.05;3.70;;;19.40;99.90;;;;;;5003219;28;20032;-73
2023/07/20 05:50:05;;;;;;;7.68;3.50;;;19.30;99.90;;;;;;5013618;28;20460;-73
2023/07/20 05:52:32;;;;;;;6.88;3.53;;;19.30;99.90;;;;;;5006809;28;20494;-73
2023/07/20 05:54:57;;;;;;;6.20;3.03;;;19.40;99.90;;;;;;5003101;28;20372;-73
2023/07/20 05:57:23;;;;;;;9.60;3.80;;;19.40;99.90;;;;;;5005763;28;20028;-72
2023/07/20 05:59:49;;;;;;;11.95;3.42;;;19.50;99.90;;;;;;5003457;28;20368;-73
2023/07/20 06:02:14;;;;;;;8.43;3.50;;;19.60;99.90;;;;;;5003106;28;20029;-74
2023/07/20 06:04:40;;;;;;;9.68;3.42;;;19.60;99.90;;;;;;5008943;28;20044;-73
2023/07/20 06:07:07;;;;;;;11.63;4.03;;;19.70;99.90;;;;;;5003586;28;20034;-72
2023/07/20 06:09:33;;;;;;;8.40;3.75;;;19.80;99.90;;;;;;5000538;28;20050;-72
2023/07/20 06:11:59;;;;;;;5.90;2.88;;;19.80;99.90;;;;;;5008167;28;20026;-72
2023/07/20 06:14:24;;;;;;;9.68;4.10;;;19.90;99.90;;;;;;5005246;28;20033;-72
2023/07/20 06:16:50;;;;;;;12.43;3.70;;;20.00;99.90;;;;;;5004215;28;20546;-72
2023/07/20 06:19:16;;;;;;;7.72;3.75;;;20.00;99.90;;;;;;5010454;28;20050;-72
2023/07/20 06:21:42;;;;;;;7.88;3.05;;;19.90;99.90;;;;;;5005183;28;20025;-72
2023/07/20 06:24:07;;;;;;;5.95;3.58;;;20.00;99.90;;;;;;5005367;28;20077;-72
2023/07/20 06:26:38;;;;;;;8.25;3.17;;;20.10;99.90;;;;;;5013345;28;20168;-72
2023/07/20 06:29:08;;;;;;;10.07;3.78;;;20.20;99.90;;;;;;5003528;28;20038;-72
2023/07/20 06:31:35;;;;;;;7.05;3.22;;;20.40;99.90;;;;;;5003346;28;20515;-72
2023/07/20 06:34:01;;;;;;;8.93;4.18;;;20.40;99.90;;;;;;5004119;28;20032;-73
2023/07/20 06:36:27;;;;;;;6.75;3.88;;;20.50;99.90;;;;;;5002558;28;20034;-73
2023/07/20 06:38:53;;;;;;;6.97;3.60;;;20.50;99.90;;;;;;5001099;28;20029;-72
2023/07/20 06:41:19;;;;;;;6.15;3.45;;;20.50;99.90;;;;;;5004486;28;20034;-73
2023/07/20 06:43:45;;;;;;;10.10;4.47;;;20.50;99.90;;;;;;5007681;28;20068;-73
2023/07/20 06:46:11;;;;;;;8.25;3.40;;;20.50;99.90;;;;;;5002225;28;20034;-73
2023/07/20 06:48:36;;;;;;;8.15;4.55;;;20.60;99.90;;;;;;5006588;28;20028;-72
2023/07/20 06:51:02;;;;;;;10.60;3.58;;;20.70;99.90;;;;;;5004030;28;20026;-72
2023/07/20 06:53:29;;;;;;;7.18;3.80;;;20.80;99.90;;;;;;5005959;28;20056;-73
2023/07/20 06:55:56;;;;;;;8.05;4.13;;;20.90;99.90;;;;;;5002625;28;20089;-73
2023/07/20 06:58:25;;;;;;;7.95;4.20;;;21.00;99.90;;;;;;5014100;28;20081;-73
2023/07/20 07:00:51;;;;;;;9.10;3.88;;;21.10;99.90;;;;;;5010692;28;20029;-73
2023/07/20 07:03:17;;;;;;;6.38;3.75;;;21.40;99.90;;;;;;5009287;28;20394;-71
2023/07/20 07:05:45;;;;;;;8.30;3.45;;;21.60;99.90;;;;;;5007001;28;20026;-72
2023/07/20 07:08:11;;;;;;;8.20;4.15;;;21.80;99.90;;;;;;5003306;28;20030;-72
2023/07/20 07:10:37;;;;;;;7.22;3.78;;;22.00;99.90;;;;;;5006340;28;20052;-72
2023/07/20 07:13:03;;;;;;;6.85;4.00;;;22.30;99.90;;;;;;5016065;28;20038;-72
2023/07/20 07:15:29;;;;;;;7.63;3.92;;;22.50;99.90;;;;;;5008645;28;20099;-73
2023/07/20 07:17:56;;;;;;;8.88;3.17;;;22.60;99.90;;;;;;5011662;28;20483;-72
2023/07/20 07:20:22;;;;;;;10.48;4.55;;;22.80;99.90;;;;;;5004585;28;20034;-72
2023/07/20 07:22:50;;;;;;;7.50;3.88;;;23.10;99.90;;;;;;5020973;28;20075;-72
2023/07/20 07:25:16;;;;;;;5.30;3.20;;;23.40;99.90;;;;;;5007605;28;20057;-73
2023/07/20 07:27:41;;;;;;;7.25;3.63;;;23.50;99.90;;;;;;5006744;28;20450;-72
2023/07/20 07:30:07;;;;;;;14.63;5.65;;;23.80;99.90;;;;;;5017398;28;20113;-72
2023/07/20 07:32:33;;;;;;;8.45;3.50;;;24.20;99.90;;;;;;5006673;28;20034;-72
2023/07/20 07:35:00;;;;;;;9.75;4.07;;;25.20;99.90;;;;;;5014976;28;20116;-72
2023/07/20 07:37:26;;;;;;;6.13;3.47;;;26.10;99.90;;;;;;5012751;28;20026;-72
2023/07/20 07:39:51;;;;;;;7.75;4.18;;;27.30;99.90;;;;;;5008698;28;20030;-72
2023/07/20 07:42:18;;;;;;;9.60;3.67;;;27.90;99.90;;;;;;5005696;28;20036;-72
2023/07/20 07:44:44;;;;;;;6.65;3.35;;;29.10;99.00;;;;;;5014726;28;20030;-73
2023/07/20 07:47:10;;;;;;;7.28;3.63;;;29.50;98.60;;;;;;5010699;28;20022;-72
2023/07/20 07:49:35;;;;;;;7.72;4.07;;;29.50;97.60;;;;;;5006946;28;22866;-72
2023/07/20 07:52:04;;;;;;;10.75;4.20;;;29.20;98.30;;;;;;5013544;28;20033;-72
2023/07/20 07:54:30;;;;;;;5.32;3.42;;;29.10;98.30;;;;;;5014994;28;20060;-72
2023/07/20 07:56:56;;;;;;;6.45;3.65;;;29.30;97.90;;;;;;5010155;28;20448;-73
2023/07/20 07:59:22;;;;;;;11.63;4.60;;;29.00;98.60;;;;;;5015370;28;20091;-72
2023/07/20 08:01:48;;;;;;;8.70;4.18;;;29.10;98.40;;;;;;5010252;28;20387;-72
2023/07/20 08:04:13;;;;;;;9.85;4.05;;;29.10;97.80;;;;;;5004526;28;20092;-72
2023/07/20 08:06:39;;;;;;;8.18;4.88;;;29.10;98.40;;;;;;5008166;28;20384;-72
2023/07/20 08:09:05;;;;;;;13.25;4.78;;;29.00;98.80;;;;;;5012499;28;20037;-72
2023/07/20 08:11:33;;;;;;;7.78;4.03;;;28.10;99.30;;;;;;5011477;28;20033;-72
2023/07/20 08:14:00;;;;;;;7.72;4.05;;;27.50;99.20;;;;;;5019499;28;20026;-72
2023/07/20 08:16:26;;;;;;;7.18;3.95;;;27.00;99.50;;;;;;5004902;28;20029;-72
2023/07/20 08:18:52;;;;;;;6.60;3.80;;;26.60;99.90;;;;;;5007312;28;20462;-72
2023/07/20 08:21:17;;;;;;;10.55;4.10;;;26.40;99.90;;;;;;5013744;28;20052;-72
2023/07/20 08:23:43;;;;;;;8.85;3.72;;;26.50;99.90;;;;;;5003643;28;20463;-71
2023/07/20 08:26:09;;;;;;;5.00;3.33;;;26.30;99.90;;;;;;5013530;28;20111;-73
2023/07/20 08:28:35;;;;;;;10.70;3.80;;;26.30;99.90;;;;;;5007864;28;20064;-73
2023/07/20 08:31:00;;;;;;;12.35;4.30;;;26.20;99.90;;;;;;5006312;28;20030;-71
2023/07/20 08:33:29;;;;;;;6.93;4.43;;;26.40;99.90;;;;;;5009991;28;20026;-73
2023/07/20 08:35:56;;;;;;;11.90;4.22;;;25.70;99.90;;;;;;5015843;28;20026;-73
2023/07/20 08:38:21;;;;;;;10.20;4.63;;;25.80;99.90;;;;;;5002378;28;20037;-73
2023/07/20 08:40:47;;;;;;;7.88;4.50;;;25.70;99.90;;;;;;5008421;28;20042;-73
2023/07/20 08:43:16;;;;;;;7.97;3.53;;;25.80;99.90;;;;;;5006244;28;20534;-73
2023/07/20 08:45:44;;;;;;;5.95;4.20;;;25.80;99.90;;;;;;5010964;28;20026;-71
2023/07/20 08:48:12;;;;;;;6.78;3.58;;;25.90;99.90;;;;;;5010886;28;20052;-71
2023/07/20 08:50:38;;;;;;;7.88;4.28;;;25.80;99.90;;;;;;5015620;28;20029;-71
2023/07/20 08:53:04;;;;;;;7.55;4.53;;;25.60;99.90;;;;;;5011339;28;20034;-71
2023/07/20 08:55:31;;;;;;;7.35;4.30;;;25.70;99.90;;;;;;5015128;28;20048;-73
2023/07/20 08:57:59;;;;;;;8.25;4.30;;;25.90;99.90;;;;;;5013729;28;20715;-71
2023/07/20 09:00:29;;;;;;;8.07;4.30;;;26.10;99.90;;;;;;5006037;28;20034;-71
2023/07/20 09:02:56;;;;;;;7.78;3.97;;;26.10;99.90;;;;;;5009005;28;20025;-71
2023/07/20 09:05:24;;;;;;;7.07;4.30;;;26.30;99.90;;;;;;5006215;28;20042;-71
2023/07/20 09:07:52;;;;;;;8.73;4.35;;;26.30;99.90;;;;;;5005434;28;21319;-71
2023/07/20 09:10:21;;;;;;;7.43;4.30;;;26.20;99.90;;;;;;5004547;28;20108;-71
2023/07/20 09:12:47;;;;;;;9.13;4.57;;;26.30;99.90;;;;;;5004306;28;20099;-71
2023/07/20 09:15:12;;;;;;;7.97;4.88;;;26.50;99.90;;;;;;5004663;28;20459;-71
2023/07/20 09:17:39;;;;;;;9.20;5.25;;;26.30;99.90;;;;;;5009610;28;20499;-71
2023/07/20 09:20:11;;;;;;;9.13;4.15;;;26.40;99.90;;;;;;5003129;28;20070;-71
2023/07/20 09:22:40;;;;;;;7.38;4.40;;;26.60;99.90;;;;;;5003915;28;20041;-71
2023/07/20 09:25:16;;;;;;;8.82;5.03;;;26.60;99.90;;;;;;5011370;28;20056;-71
2023/07/20 09:27:45;;;;;;;6.40;3.97;;;26.40;99.90;;;;;;5010316;28;20641;-71
2023/07/20 09:30:14;;;;;;;8.23;4.22;;;26.50;99.90;;;;;;5009117;28;20029;-71
2023/07/20 09:32:50;;;;;;;6.60;4.35;;;26.50;99.90;;;;;;5008084;28;20056;-72
2023/07/20 09:35:25;;;;;;;7.63;5.07;;;26.70;99.90;;;;;;5005970;28;20021;-72
2023/07/20 09:37:58;;;;;;;7.35;4.22;;;26.80;99.90;;;;;;5006984;28;20095;-72
2023/07/20 09:40:25;;;;;;;8.93;4.40;;;27.00;99.90;;;;;;5005992;28;20034;-71
2023/07/20 09:43:00;;;;;;;9.02;4.18;;;27.20;99.90;;;;;;5003554;28;20127;-71
2023/07/20 09:45:38;;;;;;;6.97;4.20;;;27.30;99.90;;;;;;5003788;28;20026;-71
2023/07/20 09:48:08;;;;;;;11.52;4.78;;;27.30;99.90;;;;;;5004121;28;20030;-71
2023/07/20 09:50:39;;;;;;;7.90;4.28;;;27.50;99.90;;;;;;5012297;28;20025;-71
2023/07/20 09:53:05;;;;;;;8.35;4.57;;;27.40;99.90;;;;;;5014764;28;20033;-71
2023/07/20 09:55:32;;;;;;;7.40;4.53;;;27.40;99.90;;;;;;5014434;28;20030;-71
2023/07/20 09:57:59;;;;;;;10.05;4.80;;;27.40;99.90;;;;;;5009246;28;20037;-71
2023/07/20 10:00:24;;;;;;;8.15;4.57;;;27.70;99.90;;;;;;5002075;28;20113;-71
2023/07/20 10:02:52;;;;;;;10.85;4.82;;;28.10;99.90;;;;;;5005445;28;20132;-71
2023/07/20 10:05:18;;;;;;;7.75;4.95;;;28.30;99.90;;;;;;5013013;28;20084;-72
2023/07/20 10:07:48;;;;;;;10.35;4.70;;;28.00;97.90;;;;;;5003994;28;20395;-72
2023/07/20 10:10:17;;;;;;;6.45;3.92;;;28.20;99.50;;;;;;5013066;28;20072;-71
2023/07/20 10:12:44;;;;;;;8.70;4.30;;;28.50;99.50;;;;;;5009708;28;20045;-71
2023/07/20 10:15:20;;;;;;;10.68;4.97;;;28.70;99.40;;;;;;5005768;28;20026;-71
2023/07/20 10:18:12;;;;;;;7.38;4.57;;;28.70;99.60;;;;;;5002162;28;20040;-71
2023/07/20 10:20:41;;;;;;;9.13;4.25;;;28.50;99.20;;;;;;5006544;28;20145;-71
2023/07/20 10:23:07;;;;;;;9.50;4.55;;;28.60;99.60;;;;;;5002814;28;20061;-71
2023/07/20 10:25:37;;;;;;;8.30;4.75;;;28.50;99.00;;;;;;5011331;28;20108;-71
2023/07/20 10:28:06;;;;;;;9.38;4.63;;;28.60;98.80;;;;;;5007008;28;20029;-71
2023/07/20 10:30:34;;;;;;;7.47;4.68;;;28.10;98.60;;;;;;5005726;28;20022;-71
2023/07/20 10:33:02;;;;;;;12.32;5.20;;;27.90;99.90;;;;;;5008550;28;20033;-71
2023/07/20 10:35:28;;;;;;;7.70;4.65;;;28.10;99.70;;;;;;5014405;28;20117;-72
2023/07/20 10:38:04;;;;;;;7.38;4.82;;;27.90;98.70;;;;;;5015719;28;20028;-72
2023/07/20 10:40:37;;;;;;;6.60;4.63;;;28.40;99.90;;;;;;5009393;28;20073;-71
2023/07/20 10:43:08;;;;;;;9.13;4.97;;;28.20;99.60;;;;;;5025793;28;20109;-72
2023/07/20 10:45:35;;;;;;;7.38;4.28;;;28.60;99.10;;;;;;5014861;28;20030;-71
2023/07/20 10:48:16;;;;;;;8.15;4.65;;;28.80;98.80;;;;;;5007981;28;20034;-71
2023/07/20 10:50:42;;;;;;;9.43;4.38;;;28.90;99.30;;;;;;5007743;28;20553;-71
2023/07/20 10:53:16;;;;;;;9.05;5.03;;;29.00;99.60;;;;;;5006944;28;20032;-71
2023/07/20 10:55:43;;;;;;;8.20;4.95;;;29.30;99.90;;;;;;5010672;28;20060;-72
2023/07/20 10:58:14;;;;;;;12.48;4.93;;;29.20;99.30;;;;;;5011172;28;20029;-72
2023/07/20 11:01:03;;;;;;;8.20;4.47;;;29.20;99.90;;;;;;4994936;28;20559;-72
2023/07/20 11:03:34;;;;;;;6.93;4.70;;;29.20;98.00;;;;;;5014680;28;20033;-72
2023/07/20 11:06:19;;;;;;;10.35;5.05;;;29.10;98.40;;;;;;5015628;28;20025;-72
2023/07/20 11:08:44;;;;;;;6.70;4.63;;;29.40;99.30;;;;;;4995783;28;20112;-71
2023/07/20 11:11:27;;;;;;;9.18;4.55;;;29.40;98.70;;;;;;5017736;28;20116;-72
2023/07/20 11:14:04;;;;;;;9.40;4.85;;;29.40;98.50;;;;;;5006186;28;20022;-73
2023/07/20 11:16:36;;;;;;;10.82;5.03;;;29.40;98.60;;;;;;5010809;28;20676;-73
2023/07/20 11:19:04;;;;;;;7.03;4.53;;;29.60;99.00;;;;;;5008895;28;20107;-72
2023/07/20 11:21:36;;;;;;;9.13;4.47;;;29.50;99.30;;;;;;5016788;28;20032;-72
2023/07/20 11:24:07;;;;;;;8.07;4.72;;;29.60;99.60;;;;;;5008269;28;20037;-71
2023/07/20 11:26:42;;;;;;;10.60;5.00;;;29.60;99.50;;;;;;5005243;28;20038;-73
2023/07/20 11:29:08;;;;;;;7.97;5.03;;;29.80;98.50;;;;;;5004720;28;20026;-72
2023/07/20 11:31:38;;;;;;;8.25;4.05;;;29.80;99.20;;;;;;5009627;28;20036;-72
2023/07/20 11:34:04;;;;;;;13.40;4.70;;;29.90;98.30;;;;;;5008526;28;20096;-72
2023/07/20 11:36:30;;;;;;;7.18;3.85;;;30.00;98.20;;;;;;5003912;28;20022;-72
2023/07/20 11:38:56;;;;;;;7.30;4.85;;;30.10;98.60;;;;;;5007988;28;20458;-72
2023/07/20 11:41:22;;;;;;;6.93;4.32;;;30.00;97.90;;;;;;5010221;28;20065;-72
2023/07/20 11:43:48;;;;;;;11.30;4.97;;;30.20;99.30;;;;;;5007453;28;20637;-72
2023/07/20 11:46:14;;;;;;;8.45;4.40;;;30.10;99.10;;;;;;5005190;28;20053;-72
2023/07/20 11:48:39;;;;;;;9.60;4.60;;;30.30;97.80;;;;;;5013415;28;20517;-72
2023/07/20 11:51:05;;;;;;;6.80;4.32;;;30.40;98.90;;;;;;5003162;28;20518;-73
2023/07/20 11:53:33;;;;;;;7.30;4.55;;;30.40;98.40;;;;;;5003664;28;20025;-73
2023/07/20 11:55:59;;;;;;;8.48;4.75;;;30.60;99.10;;;;;;5007548;28;20061;-73
2023/07/20 11:58:27;;;;;;;6.72;4.20;;;30.60;98.00;;;;;;5002471;28;20042;-73
2023/07/20 12:00:54;;;;;;;7.85;4.32;;;30.70;98.50;;;;;;5007983;28;20034;-73
2023/07/20 12:03:20;;;;;;;7.20;3.75;;;30.70;99.20;;;;;;5013144;28;20042;-73
2023/07/20 12:05:46;;;;;;;5.60;3.40;;;30.90;98.10;;;;;;5004453;28;20461;-73
2023/07/20 12:08:12;;;;;;;6.90;3.83;;;31.20;98.10;;;;;;5009482;28;20240;-73
2023/07/20 12:10:43;;;;;;;6.93;3.78;;;31.00;96.90;;;;;;5009579;28;20057;-73
2023/07/20 12:13:11;;;;;;;6.35;3.55;;;30.80;96.30;;;;;;5016035;28;20029;-73
2023/07/20 12:15:37;;;;;;;7.68;4.18;;;30.60;93.90;;;;;;5006823;28;20172;-73
2023/07/20 12:18:03;;;;;;;12.25;3.47;;;30.70;95.70;;;;;;5006258;28;20574;-73
2023/07/20 12:20:34;;;;;;;6.60;3.03;;;31.20;95.30;;;;;;5007517;28;20060;-73
2023/07/20 12:23:02;;;;;;;9.43;4.22;;;31.20;94.30;;;;;;5006433;28;20030;-72
2023/07/20 12:25:40;;;;;;;6.72;3.80;;;31.50;95.80;;;;;;5005626;28;20018;-72
2023/07/20 12:28:11;;;;;;;9.95;3.13;;;31.90;95.20;;;;;;5009336;28;20041;-73
2023/07/20 12:30:40;;;;;;;5.32;2.92;;;31.80;94.60;;;;;;5004181;28;20032;-73
2023/07/20 12:33:06;;;;;;;5.35;3.28;;;31.90;95.10;;;;;;5005547;28;20937;-73
2023/07/20 12:35:33;;;;;;;5.25;3.35;;;32.00;94.40;;;;;;5003834;28;20033;-73
2023/07/20 12:37:59;;;;;;;5.57;3.25;;;31.60;94.90;;;;;;5010527;28;20614;-73
2023/07/20 12:40:25;;;;;;;6.97;3.75;;;31.50;94.90;;;;;;5000879;28;20057;-72
2023/07/20 12:42:51;;;;;;;7.75;3.38;;;31.70;95.60;;;;;;5002907;28;20104;-72
2023/07/20 12:45:16;;;;;;;8.77;4.28;;;31.60;95.90;;;;;;5009626;28;20124;-72
2023/07/20 12:47:43;;;;;;;6.18;3.30;;;31.50;94.70;;;;;;5004421;28;20569;-72